sensor_id;sensor_type;location;lat;lon;timestamp;pressure;altitude;pressure_sealevel;temperature;humidity
18784;BME280;9520;50.954;6.968;2022-07-01T00:00:11;100934.31;;;24.42;49.66
18784;BME280;9520;50.954;6.968;2022-07-01T00:00:36;100937.00;;;24.42;50.06
18784;BME280;9520;50.954;6.968;2022-07-01T00:00:57;100945.09;;;24.42;49.58
18784;BME280;9520;50.954;6.968;2022-07-01T00:01:19;100937.00;;;24.42;49.88
18784;BME280;9520;50.954;6.968;2022-07-01T00:01:42;100940.66;;;24.41;50.19
18784;BME280;9520;50.954;6.968;2022-07-01T00:02:05;100943.34;;;24.41;49.97
18784;BME280;9520;50.954;6.968;2022-07-01T00:02:27;100937.09;;;24.40;49.32
18784;BME280;9520;50.954;6.968;2022-07-01T00:02:49;100946.06;;;24.41;48.14
18784;BME280;9520;50.954;6.968;2022-07-01T00:03:11;100944.41;;;24.38;47.67
18784;BME280;9520;50.954;6.968;2022-07-01T00:03:33;100947.00;;;24.40;47.98
18784;BME280;9520;50.954;6.968;2022-07-01T00:03:55;100940.84;;;24.38;47.67
18784;BME280;9520;50.954;6.968;2022-07-01T00:04:19;100946.78;;;24.30;48.17
18784;BME280;9520;50.954;6.968;2022-07-01T00:04:40;100938.13;;;24.25;48.06
18784;BME280;9520;50.954;6.968;2022-07-01T00:05:20;100943.63;;;24.24;48.14
18784;BME280;9520;50.954;6.968;2022-07-01T00:05:43;100941.25;;;24.19;48.55
18784;BME280;9520;50.954;6.968;2022-07-01T00:06:05;100946.31;;;24.24;48.37
18784;BME280;9520;50.954;6.968;2022-07-01T00:06:27;100942.75;;;24.23;47.93
18784;BME280;9520;50.954;6.968;2022-07-01T00:06:49;100940.81;;;24.25;48.47
18784;BME280;9520;50.954;6.968;2022-07-01T00:07:11;100942.75;;;24.23;48.34
18784;BME280;9520;50.954;6.968;2022-07-01T00:07:33;100943.75;;;24.22;48.11
18784;BME280;9520;50.954;6.968;2022-07-01T00:07:55;100938.34;;;24.22;48.07
18784;BME280;9520;50.954;6.968;2022-07-01T00:08:16;100936.50;;;24.23;48.45
18784;BME280;9520;50.954;6.968;2022-07-01T00:08:41;100944.47;;;24.24;49.08
18784;BME280;9520;50.954;6.968;2022-07-01T00:09:03;100936.72;;;24.20;48.68
18784;BME280;9520;50.954;6.968;2022-07-01T00:09:26;100930.25;;;24.22;48.40
18784;BME280;9520;50.954;6.968;2022-07-01T00:09:48;100921.31;;;24.22;48.72
18784;BME280;9520;50.954;6.968;2022-07-01T00:10:11;100927.34;;;24.25;49.21
18784;BME280;9520;50.954;6.968;2022-07-01T00:10:33;100928.53;;;24.21;49.20
18784;BME280;9520;50.954;6.968;2022-07-01T00:10:56;100923.78;;;24.25;48.91
18784;BME280;9520;50.954;6.968;2022-07-01T00:11:18;100911.25;;;24.24;48.99
18784;BME280;9520;50.954;6.968;2022-07-01T00:11:40;100921.09;;;24.25;48.96
18784;BME280;9520;50.954;6.968;2022-07-01T00:12:03;100922.91;;;24.24;49.31
18784;BME280;9520;50.954;6.968;2022-07-01T00:12:25;100906.28;;;24.18;49.73
18784;BME280;9520;50.954;6.968;2022-07-01T00:12:47;100924.56;;;24.27;49.08
18784;BME280;9520;50.954;6.968;2022-07-01T00:13:09;100926.38;;;24.26;49.04
18784;BME280;9520;50.954;6.968;2022-07-01T00:13:33;100924.66;;;24.25;48.67
18784;BME280;9520;50.954;6.968;2022-07-01T00:13:54;100927.34;;;24.25;48.72
18784;BME280;9520;50.954;6.968;2022-07-01T00:14:16;100930.91;;;24.26;49.53
18784;BME280;9520;50.954;6.968;2022-07-01T00:14:38;100903.78;;;24.15;49.79
18784;BME280;9520;50.954;6.968;2022-07-01T00:15:00;100929.09;;;24.26;49.82
18784;BME280;9520;50.954;6.968;2022-07-01T00:15:22;100937.91;;;24.28;49.67
18784;BME280;9520;50.954;6.968;2022-07-01T00:15:44;100941.69;;;24.26;49.79
18784;BME280;9520;50.954;6.968;2022-07-01T00:16:06;100937.25;;;24.25;49.91
18784;BME280;9520;50.954;6.968;2022-07-01T00:16:28;100930.13;;;24.24;49.32
18784;BME280;9520;50.954;6.968;2022-07-01T00:16:51;100929.28;;;24.23;49.70
18784;BME280;9520;50.954;6.968;2022-07-01T00:17:12;100933.94;;;24.21;50.08
18784;BME280;9520;50.954;6.968;2022-07-01T00:18:26;100927.34;;;24.25;49.59
18784;BME280;9520;50.954;6.968;2022-07-01T00:18:47;100936.22;;;24.27;48.76
18784;BME280;9520;50.954;6.968;2022-07-01T00:19:09;100929.19;;;24.25;48.49
18784;BME280;9520;50.954;6.968;2022-07-01T00:19:32;100936.31;;;24.26;48.23
18784;BME280;9520;50.954;6.968;2022-07-01T00:19:54;100927.34;;;24.25;48.24
18784;BME280;9520;50.954;6.968;2022-07-01T00:20:17;100927.44;;;24.24;48.43
18784;BME280;9520;50.954;6.968;2022-07-01T00:20:39;100916.97;;;24.19;48.41
18784;BME280;9520;50.954;6.968;2022-07-01T00:21:35;100923.00;;;24.23;47.81
18784;BME280;9520;50.954;6.968;2022-07-01T00:21:58;100922.38;;;24.19;47.72
18784;BME280;9520;50.954;6.968;2022-07-01T00:22:20;100903.63;;;24.03;47.53
18784;BME280;9520;50.954;6.968;2022-07-01T00:22:43;100892.72;;;23.92;47.58
18784;BME280;9520;50.954;6.968;2022-07-01T00:23:05;100919.72;;;24.05;48.29
18784;BME280;9520;50.954;6.968;2022-07-01T00:23:30;100921.34;;;24.07;48.78
18784;BME280;9520;50.954;6.968;2022-07-01T00:23:55;100906.53;;;24.00;49.61
18784;BME280;9520;50.954;6.968;2022-07-01T00:24:17;100927.47;;;24.09;49.61
18784;BME280;9520;50.954;6.968;2022-07-01T00:24:41;100908.72;;;24.08;49.31
18784;BME280;9520;50.954;6.968;2022-07-01T00:25:07;100917.56;;;24.10;49.83
18784;BME280;9520;50.954;6.968;2022-07-01T00:25:29;100922.00;;;24.11;50.08
18784;BME280;9520;50.954;6.968;2022-07-01T00:25:51;100925.88;;;24.07;50.34
18784;BME280;9520;50.954;6.968;2022-07-01T00:26:14;100921.13;;;24.10;50.02
18784;BME280;9520;50.954;6.968;2022-07-01T00:26:36;100922.00;;;24.11;49.96
18784;BME280;9520;50.954;6.968;2022-07-01T00:27:01;100929.22;;;24.10;49.48
18784;BME280;9520;50.954;6.968;2022-07-01T00:27:23;100905.59;;;24.01;49.02
18784;BME280;9520;50.954;6.968;2022-07-01T00:27:45;100917.56;;;24.10;48.69
18784;BME280;9520;50.954;6.968;2022-07-01T00:28:08;100913.53;;;24.03;48.36
18784;BME280;9520;50.954;6.968;2022-07-01T00:28:30;100919.50;;;24.08;48.35
18784;BME280;9520;50.954;6.968;2022-07-01T00:28:52;100917.78;;;24.07;48.62
18784;BME280;9520;50.954;6.968;2022-07-01T00:29:15;100932.13;;;24.07;49.07
18784;BME280;9520;50.954;6.968;2022-07-01T00:29:37;100933.09;;;24.06;49.15
18784;BME280;9520;50.954;6.968;2022-07-01T00:29:59;100940.97;;;24.09;49.34
18784;BME280;9520;50.954;6.968;2022-07-01T00:30:21;100925.97;;;24.05;49.30
18784;BME280;9520;50.954;6.968;2022-07-01T00:30:45;100940.97;;;24.09;48.79
18784;BME280;9520;50.954;6.968;2022-07-01T00:31:06;100943.75;;;24.08;48.76
18784;BME280;9520;50.954;6.968;2022-07-01T00:31:28;100941.28;;;24.05;48.68
18784;BME280;9520;50.954;6.968;2022-07-01T00:31:50;100944.28;;;24.00;48.50
18784;BME280;9520;50.954;6.968;2022-07-01T00:32:12;100932.84;;;23.97;48.67
18784;BME280;9520;50.954;6.968;2022-07-01T00:32:35;100937.38;;;23.96;48.83
18784;BME280;9520;50.954;6.968;2022-07-01T00:32:57;100928.50;;;23.94;48.72
18784;BME280;9520;50.954;6.968;2022-07-01T00:33:19;100942.06;;;23.93;48.89
18784;BME280;9520;50.954;6.968;2022-07-01T00:33:41;100938.63;;;23.91;49.03
18784;BME280;9520;50.954;6.968;2022-07-01T00:34:04;100940.56;;;23.89;49.01
18784;BME280;9520;50.954;6.968;2022-07-01T00:34:25;100941.53;;;23.88;48.99
18784;BME280;9520;50.954;6.968;2022-07-01T00:34:47;100943.38;;;23.87;49.06
18784;BME280;9520;50.954;6.968;2022-07-01T00:35:09;100943.38;;;23.87;49.03
18784;BME280;9520;50.954;6.968;2022-07-01T00:35:31;100938.06;;;23.86;49.14
18784;BME280;9520;50.954;6.968;2022-07-01T00:35:53;100935.38;;;23.86;49.04
18784;BME280;9520;50.954;6.968;2022-07-01T00:36:16;100940.00;;;23.84;48.73
18784;BME280;9520;50.954;6.968;2022-07-01T00:36:37;100943.78;;;23.81;48.67
18784;BME280;9520;50.954;6.968;2022-07-01T00:36:59;100947.41;;;23.80;48.86
18784;BME280;9520;50.954;6.968;2022-07-01T00:37:21;100948.38;;;23.79;49.02
18784;BME280;9520;50.954;6.968;2022-07-01T00:37:44;100948.38;;;23.79;49.29
18784;BME280;9520;50.954;6.968;2022-07-01T00:38:05;100944.72;;;23.80;49.47
18784;BME280;9520;50.954;6.968;2022-07-01T00:38:27;100944.72;;;23.80;49.50
18784;BME280;9520;50.954;6.968;2022-07-01T00:38:49;100942.91;;;23.81;49.51
18784;BME280;9520;50.954;6.968;2022-07-01T00:39:13;100944.50;;;23.83;49.29
18784;BME280;9520;50.954;6.968;2022-07-01T00:39:34;100943.47;;;23.86;49.86
18784;BME280;9520;50.954;6.968;2022-07-01T00:39:58;100948.75;;;23.87;49.92
18784;BME280;9520;50.954;6.968;2022-07-01T00:40:20;100950.59;;;23.87;49.38
18784;BME280;9520;50.954;6.968;2022-07-01T00:40:43;100943.38;;;23.87;49.40
18784;BME280;9520;50.954;6.968;2022-07-01T00:41:04;100950.75;;;23.84;49.42
18784;BME280;9520;50.954;6.968;2022-07-01T00:41:26;100944.63;;;23.82;49.16
18784;BME280;9520;50.954;6.968;2022-07-01T00:41:48;100948.38;;;23.79;49.03
18784;BME280;9520;50.954;6.968;2022-07-01T00:42:16;100945.69;;;23.79;49.34
18784;BME280;9520;50.954;6.968;2022-07-01T00:42:39;100940.41;;;23.78;49.31
18784;BME280;9520;50.954;6.968;2022-07-01T00:43:00;100940.78;;;23.86;49.03
18784;BME280;9520;50.954;6.968;2022-07-01T00:43:23;100952.59;;;23.83;48.65
18784;BME280;9520;50.954;6.968;2022-07-01T00:44:06;100945.91;;;23.76;48.96
18784;BME280;9520;50.954;6.968;2022-07-01T00:44:28;100948.59;;;23.76;49.32
18784;BME280;9520;50.954;6.968;2022-07-01T00:44:49;100947.72;;;23.76;49.60
18784;BME280;9520;50.954;6.968;2022-07-01T00:45:12;100946.94;;;23.74;49.76
18784;BME280;9520;50.954;6.968;2022-07-01T00:45:34;100949.63;;;23.74;49.42
18784;BME280;9520;50.954;6.968;2022-07-01T00:45:56;100945.13;;;23.74;49.23
18784;BME280;9520;50.954;6.968;2022-07-01T00:46:18;100946.84;;;23.75;49.14
18784;BME280;9520;50.954;6.968;2022-07-01T00:46:44;100938.00;;;23.73;48.88
18784;BME280;9520;50.954;6.968;2022-07-01T00:47:10;100940.69;;;23.73;49.06
18784;BME280;9520;50.954;6.968;2022-07-01T00:47:33;100938.31;;;23.68;49.21
18784;BME280;9520;50.954;6.968;2022-07-01T00:47:55;100948.25;;;23.68;49.26
18784;BME280;9520;50.954;6.968;2022-07-01T00:48:19;100946.50;;;23.67;49.04
18784;BME280;9520;50.954;6.968;2022-07-01T00:48:41;100948.06;;;23.57;49.13
18784;BME280;9520;50.954;6.968;2022-07-01T00:49:03;100960.19;;;23.50;49.17
18784;BME280;9520;50.954;6.968;2022-07-01T00:49:26;100952.22;;;23.48;49.64
18784;BME280;9520;50.954;6.968;2022-07-01T00:49:48;100959.69;;;23.43;49.52
18784;BME280;9520;50.954;6.968;2022-07-01T00:50:11;100962.22;;;23.46;49.54
18784;BME280;9520;50.954;6.968;2022-07-01T00:50:33;100960.31;;;23.48;50.11
18784;BME280;9520;50.954;6.968;2022-07-01T00:50:57;100968.16;;;23.51;49.75
18784;BME280;9520;50.954;6.968;2022-07-01T00:51:19;100965.78;;;23.47;49.77
18784;BME280;9520;50.954;6.968;2022-07-01T00:51:41;100975.69;;;23.46;49.77
18784;BME280;9520;50.954;6.968;2022-07-01T00:52:03;100976.53;;;23.47;49.31
18784;BME280;9520;50.954;6.968;2022-07-01T00:52:26;100960.25;;;23.34;49.52
18784;BME280;9520;50.954;6.968;2022-07-01T00:52:50;100967.19;;;23.38;49.55
18784;BME280;9520;50.954;6.968;2022-07-01T00:53:12;100967.38;;;23.35;49.67
18784;BME280;9520;50.954;6.968;2022-07-01T00:53:35;100966.34;;;23.38;49.59
18784;BME280;9520;50.954;6.968;2022-07-01T00:53:58;100959.38;;;23.34;49.48
18784;BME280;9520;50.954;6.968;2022-07-01T00:54:21;100966.50;;;23.35;49.62
18784;BME280;9520;50.954;6.968;2022-07-01T00:54:44;100960.25;;;23.34;49.67
18784;BME280;9520;50.954;6.968;2022-07-01T00:55:09;100956.91;;;23.31;49.83
18784;BME280;9520;50.954;6.968;2022-07-01T00:55:32;100962.09;;;23.34;50.48
18784;BME280;9520;50.954;6.968;2022-07-01T00:55:53;100964.78;;;23.34;50.33
18784;BME280;9520;50.954;6.968;2022-07-01T00:56:15;100937.00;;;23.19;50.26
18784;BME280;9520;50.954;6.968;2022-07-01T00:56:37;100962.78;;;23.37;49.91
18784;BME280;9520;50.954;6.968;2022-07-01T00:56:59;100967.38;;;23.35;49.87
18784;BME280;9520;50.954;6.968;2022-07-01T00:57:21;100970.06;;;23.35;49.94
18784;BME280;9520;50.954;6.968;2022-07-01T00:57:43;100964.22;;;23.29;50.20
18784;BME280;9520;50.954;6.968;2022-07-01T00:58:06;100977.50;;;23.32;49.96
18784;BME280;9520;50.954;6.968;2022-07-01T00:58:29;100977.56;;;23.30;49.50
18784;BME280;9520;50.954;6.968;2022-07-01T00:58:51;100978.81;;;23.24;49.67
18784;BME280;9520;50.954;6.968;2022-07-01T00:59:13;100982.50;;;23.23;49.94
18784;BME280;9520;50.954;6.968;2022-07-01T00:59:36;100982.22;;;23.28;49.98
18784;BME280;9520;50.954;6.968;2022-07-01T01:00:01;100981.34;;;23.28;50.04
18784;BME280;9520;50.954;6.968;2022-07-01T01:00:23;100981.34;;;23.28;49.75
18784;BME280;9520;50.954;6.968;2022-07-01T01:00:44;100976.81;;;23.28;49.57
18784;BME280;9520;50.954;6.968;2022-07-01T01:01:07;100980.47;;;23.27;49.44
18784;BME280;9520;50.954;6.968;2022-07-01T01:01:29;100976.13;;;23.24;49.91
18784;BME280;9520;50.954;6.968;2022-07-01T01:01:52;100984.69;;;23.31;50.44
18784;BME280;9520;50.954;6.968;2022-07-01T01:02:13;100984.59;;;23.33;50.82
18784;BME280;9520;50.954;6.968;2022-07-01T01:02:35;100992.47;;;23.36;51.15
18784;BME280;9520;50.954;6.968;2022-07-01T01:02:57;100988.75;;;23.38;50.83
18784;BME280;9520;50.954;6.968;2022-07-01T01:03:20;100981.63;;;23.37;50.51
18784;BME280;9520;50.954;6.968;2022-07-01T01:03:41;100978.81;;;23.39;49.85
18784;BME280;9520;50.954;6.968;2022-07-01T01:04:04;100978.16;;;23.35;49.83
18784;BME280;9520;50.954;6.968;2022-07-01T01:04:26;100983.34;;;23.38;50.16
18784;BME280;9520;50.954;6.968;2022-07-01T01:04:48;100979.59;;;23.41;50.35
18784;BME280;9520;50.954;6.968;2022-07-01T01:05:10;100984.78;;;23.44;50.46
18784;BME280;9520;50.954;6.968;2022-07-01T01:05:33;100984.03;;;23.42;50.51
18784;BME280;9520;50.954;6.968;2022-07-01T01:05:55;100969.97;;;23.37;50.74
18784;BME280;9520;50.954;6.968;2022-07-01T01:06:18;100979.25;;;23.47;51.19
18784;BME280;9520;50.954;6.968;2022-07-01T01:06:40;100979.03;;;23.50;50.23
18784;BME280;9520;50.954;6.968;2022-07-01T01:07:02;100973.06;;;23.45;50.12
18784;BME280;9520;50.954;6.968;2022-07-01T01:07:26;100983.56;;;23.49;50.11
18784;BME280;9520;50.954;6.968;2022-07-01T01:07:48;100977.13;;;23.52;50.28
18784;BME280;9520;50.954;6.968;2022-07-01T01:08:11;100972.47;;;23.54;50.28
18784;BME280;9520;50.954;6.968;2022-07-01T01:08:33;100977.69;;;23.57;49.81
18784;BME280;9520;50.954;6.968;2022-07-01T01:08:56;100982.28;;;23.55;49.24
18784;BME280;9520;50.954;6.968;2022-07-01T01:09:18;100979.31;;;23.45;49.37
18784;BME280;9520;50.954;6.968;2022-07-01T01:09:41;100982.03;;;23.45;49.06
18784;BME280;9520;50.954;6.968;2022-07-01T01:10:04;100976.63;;;23.31;49.20
18784;BME280;9520;50.954;6.968;2022-07-01T01:10:27;100972.47;;;23.25;49.46
18784;BME280;9520;50.954;6.968;2022-07-01T01:10:49;100976.91;;;23.27;49.48
18784;BME280;9520;50.954;6.968;2022-07-01T01:11:11;100975.16;;;23.25;49.31
18784;BME280;9520;50.954;6.968;2022-07-01T01:11:33;100971.03;;;23.20;49.65
18784;BME280;9520;50.954;6.968;2022-07-01T01:11:56;100974.59;;;23.20;49.63
18784;BME280;9520;50.954;6.968;2022-07-01T01:12:19;100978.81;;;23.24;50.01
18784;BME280;9520;50.954;6.968;2022-07-01T01:12:42;100977.00;;;23.25;49.85
18784;BME280;9520;50.954;6.968;2022-07-01T01:13:04;100976.91;;;23.27;50.08
18784;BME280;9520;50.954;6.968;2022-07-01T01:13:26;100979.50;;;23.28;50.15
18784;BME280;9520;50.954;6.968;2022-07-01T01:13:49;100975.97;;;23.28;49.95
18784;BME280;9520;50.954;6.968;2022-07-01T01:14:10;100986.72;;;23.28;49.99
18784;BME280;9520;50.954;6.968;2022-07-01T01:14:43;100984.97;;;23.27;50.02
18784;BME280;9520;50.954;6.968;2022-07-01T01:15:07;100981.50;;;23.24;49.67
18784;BME280;9520;50.954;6.968;2022-07-01T01:15:30;100985.19;;;23.23;49.71
18784;BME280;9520;50.954;6.968;2022-07-01T01:15:52;100991.63;;;23.21;49.79
18784;BME280;9520;50.954;6.968;2022-07-01T01:16:18;100986.16;;;23.22;50.27
18784;BME280;9520;50.954;6.968;2022-07-01T01:16:40;100987.09;;;23.21;49.78
18784;BME280;9520;50.954;6.968;2022-07-01T01:17:02;100987.97;;;23.22;50.00
18784;BME280;9520;50.954;6.968;2022-07-01T01:17:25;100988.84;;;23.22;49.75
18784;BME280;9520;50.954;6.968;2022-07-01T01:17:48;100988.63;;;23.25;49.62
18784;BME280;9520;50.954;6.968;2022-07-01T01:18:10;100981.63;;;23.23;49.94
18784;BME280;9520;50.954;6.968;2022-07-01T01:18:31;100986.03;;;23.24;50.17
18784;BME280;9520;50.954;6.968;2022-07-01T01:18:55;100978.66;;;23.28;50.28
18784;BME280;9520;50.954;6.968;2022-07-01T01:19:18;100986.72;;;23.28;50.42
18784;BME280;9520;50.954;6.968;2022-07-01T01:19:39;100990.06;;;23.31;50.25
18784;BME280;9520;50.954;6.968;2022-07-01T01:20:02;100983.44;;;23.22;50.32
18784;BME280;9520;50.954;6.968;2022-07-01T01:20:25;100988.72;;;23.24;50.48
18784;BME280;9520;50.954;6.968;2022-07-01T01:20:49;100982.22;;;23.28;50.43
18784;BME280;9520;50.954;6.968;2022-07-01T01:21:10;100987.88;;;23.23;50.24
18784;BME280;9520;50.954;6.968;2022-07-01T01:21:32;100981.34;;;23.28;50.04
18784;BME280;9520;50.954;6.968;2022-07-01T01:21:54;100990.28;;;23.28;49.58
18784;BME280;9520;50.954;6.968;2022-07-01T01:22:18;100993.56;;;23.33;49.54
18784;BME280;9520;50.954;6.968;2022-07-01T01:22:39;100988.25;;;23.32;49.71
18784;BME280;9520;50.954;6.968;2022-07-01T01:23:02;100992.47;;;23.36;49.31
18784;BME280;9520;50.954;6.968;2022-07-01T01:23:25;100983.53;;;23.35;49.45
18784;BME280;9520;50.954;6.968;2022-07-01T01:23:48;100990.06;;;23.31;49.32
18784;BME280;9520;50.954;6.968;2022-07-01T01:24:10;100990.06;;;23.31;49.18
18784;BME280;9520;50.954;6.968;2022-07-01T01:24:32;100984.03;;;23.28;49.40
18784;BME280;9520;50.954;6.968;2022-07-01T01:24:53;100996.34;;;23.32;49.41
18784;BME280;9520;50.954;6.968;2022-07-01T01:25:17;100990.16;;;23.30;49.36
18784;BME280;9520;50.954;6.968;2022-07-01T01:25:39;100992.84;;;23.30;49.69
18784;BME280;9520;50.954;6.968;2022-07-01T01:26:00;100993.63;;;23.32;49.57
18784;BME280;9520;50.954;6.968;2022-07-01T01:26:23;100992.69;;;23.18;49.33
18784;BME280;9520;50.954;6.968;2022-07-01T01:26:46;100986.91;;;23.10;50.06
18784;BME280;9520;50.954;6.968;2022-07-01T01:27:08;100991.13;;;23.14;49.93
18784;BME280;9520;50.954;6.968;2022-07-01T01:27:30;100985.06;;;23.11;49.89
18784;BME280;9520;50.954;6.968;2022-07-01T01:27:51;100991.41;;;23.10;50.00
18784;BME280;9520;50.954;6.968;2022-07-01T01:28:14;100996.72;;;23.11;49.91
18784;BME280;9520;50.954;6.968;2022-07-01T01:28:36;100989.72;;;23.09;50.23
18784;BME280;9520;50.954;6.968;2022-07-01T01:28:58;100997.78;;;23.09;50.09
18784;BME280;9520;50.954;6.968;2022-07-01T01:29:20;101005.06;;;23.07;50.17
18784;BME280;9520;50.954;6.968;2022-07-01T01:29:43;100997.78;;;23.09;50.45
18784;BME280;9520;50.954;6.968;2022-07-01T01:30:07;101000.28;;;23.12;50.86
18784;BME280;9520;50.954;6.968;2022-07-01T01:30:29;100993.06;;;23.12;51.19
18784;BME280;9520;50.954;6.968;2022-07-01T01:30:51;100999.97;;;23.16;50.88
18784;BME280;9520;50.954;6.968;2022-07-01T01:31:15;100999.97;;;23.16;50.43
18784;BME280;9520;50.954;6.968;2022-07-01T01:31:36;100996.34;;;23.17;50.40
18784;BME280;9520;50.954;6.968;2022-07-01T01:31:58;101007.84;;;23.19;50.29
18784;BME280;9520;50.954;6.968;2022-07-01T01:32:20;101008.94;;;23.17;50.16
18784;BME280;9520;50.954;6.968;2022-07-01T01:32:43;100994.22;;;23.08;50.02
18784;BME280;9520;50.954;6.968;2022-07-01T01:33:05;101004.50;;;23.16;50.04
18784;BME280;9520;50.954;6.968;2022-07-01T01:33:29;101004.41;;;23.17;50.44
18784;BME280;9520;50.954;6.968;2022-07-01T01:33:50;101005.94;;;23.21;50.43
18784;BME280;9520;50.954;6.968;2022-07-01T01:34:12;101004.13;;;23.22;50.21
18784;BME280;9520;50.954;6.968;2022-07-01T01:34:37;101003.03;;;23.24;50.56
18784;BME280;9520;50.954;6.968;2022-07-01T01:35:00;100997.56;;;23.26;50.59
18784;BME280;9520;50.954;6.968;2022-07-01T01:35:22;100998.06;;;23.33;50.58
18784;BME280;9520;50.954;6.968;2022-07-01T01:35:44;100994.31;;;23.35;51.32
18784;BME280;9520;50.954;6.968;2022-07-01T01:36:08;100993.25;;;23.38;50.87
18784;BME280;9520;50.954;6.968;2022-07-01T01:36:30;100998.44;;;23.41;49.84
18784;BME280;9520;50.954;6.968;2022-07-01T01:36:52;101002.09;;;23.40;50.30
18784;BME280;9520;50.954;6.968;2022-07-01T01:37:13;100993.25;;;23.38;49.27
18784;BME280;9520;50.954;6.968;2022-07-01T01:37:36;100989.59;;;23.24;49.32
18784;BME280;9520;50.954;6.968;2022-07-01T01:37:58;100999.50;;;23.24;49.57
18784;BME280;9520;50.954;6.968;2022-07-01T01:38:19;100997.88;;;23.21;49.72
18784;BME280;9520;50.954;6.968;2022-07-01T01:38:41;101003.34;;;23.20;49.92
18784;BME280;9520;50.954;6.968;2022-07-01T01:39:04;101006.97;;;23.19;50.11
18784;BME280;9520;50.954;6.968;2022-07-01T01:39:29;100998.44;;;23.12;50.37
18784;BME280;9520;50.954;6.968;2022-07-01T01:39:51;101009.97;;;23.14;50.36
18784;BME280;9520;50.954;6.968;2022-07-01T01:40:13;101003.63;;;23.15;50.44
18784;BME280;9520;50.954;6.968;2022-07-01T01:40:35;101004.56;;;23.14;50.29
18784;BME280;9520;50.954;6.968;2022-07-01T01:40:57;101004.28;;;23.19;50.14
18784;BME280;9520;50.954;6.968;2022-07-01T01:41:19;101001.50;;;23.20;50.29
18784;BME280;9520;50.954;6.968;2022-07-01T01:41:41;101007.56;;;23.24;50.66
18784;BME280;9520;50.954;6.968;2022-07-01T01:42:04;101014.59;;;23.27;50.44
18784;BME280;9520;50.954;6.968;2022-07-01T01:42:26;101006.31;;;23.30;50.80
18784;BME280;9520;50.954;6.968;2022-07-01T01:42:47;101003.75;;;23.28;50.94
18784;BME280;9520;50.954;6.968;2022-07-01T01:43:10;101014.97;;;23.35;50.06
18784;BME280;9520;50.954;6.968;2022-07-01T01:43:32;101013.16;;;23.35;50.46
18784;BME280;9520;50.954;6.968;2022-07-01T01:43:55;101015.53;;;23.40;50.41
18784;BME280;9520;50.954;6.968;2022-07-01T01:44:17;101012.00;;;23.39;49.83
18784;BME280;9520;50.954;6.968;2022-07-01T01:44:40;101016.22;;;23.29;49.61
18784;BME280;9520;50.954;6.968;2022-07-01T01:45:03;101017.09;;;23.30;49.84
18784;BME280;9520;50.954;6.968;2022-07-01T01:45:24;101018.16;;;23.27;49.66
18784;BME280;9520;50.954;6.968;2022-07-01T01:45:46;101010.16;;;23.25;49.61
18784;BME280;9520;50.954;6.968;2022-07-01T01:46:09;101008.44;;;23.24;50.10
18784;BME280;9520;50.954;6.968;2022-07-01T01:46:31;101016.34;;;23.28;50.19
18784;BME280;9520;50.954;6.968;2022-07-01T01:46:53;101011.69;;;23.30;50.68
18784;BME280;9520;50.954;6.968;2022-07-01T01:47:15;101012.47;;;23.32;50.60
18784;BME280;9520;50.954;6.968;2022-07-01T01:47:38;101009.13;;;23.28;50.25
18784;BME280;9520;50.954;6.968;2022-07-01T01:47:59;101010.25;;;23.24;50.06
18784;BME280;9520;50.954;6.968;2022-07-01T01:48:21;101011.91;;;23.27;50.27
18784;BME280;9520;50.954;6.968;2022-07-01T01:48:43;101011.81;;;23.28;50.60
18784;BME280;9520;50.954;6.968;2022-07-01T01:49:06;101007.19;;;23.30;50.51
18784;BME280;9520;50.954;6.968;2022-07-01T01:49:28;101016.91;;;23.33;50.26
18784;BME280;9520;50.954;6.968;2022-07-01T01:49:50;100998.75;;;23.22;50.73
18784;BME280;9520;50.954;6.968;2022-07-01T01:50:12;101005.44;;;23.29;50.58
18784;BME280;9520;50.954;6.968;2022-07-01T01:50:36;101006.53;;;23.27;50.50
18784;BME280;9520;50.954;6.968;2022-07-01T01:50:58;101005.44;;;23.29;50.23
18784;BME280;9520;50.954;6.968;2022-07-01T01:51:21;101006.22;;;23.31;50.21
18784;BME280;9520;50.954;6.968;2022-07-01T01:51:43;101003.53;;;23.31;50.31
18784;BME280;9520;50.954;6.968;2022-07-01T01:52:06;101006.03;;;23.34;50.16
18784;BME280;9520;50.954;6.968;2022-07-01T01:52:27;101006.03;;;23.34;50.23
18784;BME280;9520;50.954;6.968;2022-07-01T01:52:49;101002.38;;;23.35;50.98
18784;BME280;9520;50.954;6.968;2022-07-01T01:53:11;101004.13;;;23.36;50.75
18784;BME280;9520;50.954;6.968;2022-07-01T01:53:33;101012.97;;;23.38;50.83
18784;BME280;9520;50.954;6.968;2022-07-01T01:53:55;101002.28;;;23.37;50.74
18784;BME280;9520;50.954;6.968;2022-07-01T01:54:17;101004.03;;;23.38;50.27
18784;BME280;9520;50.954;6.968;2022-07-01T01:54:39;101009.22;;;23.41;50.86
18784;BME280;9520;50.954;6.968;2022-07-01T01:55:02;101007.69;;;23.37;51.05
18784;BME280;9520;50.954;6.968;2022-07-01T01:55:24;101014.50;;;23.42;50.29
18784;BME280;9520;50.954;6.968;2022-07-01T01:55:46;101011.69;;;23.44;49.94
18784;BME280;9520;50.954;6.968;2022-07-01T01:56:07;101017.06;;;23.44;49.84
18784;BME280;9520;50.954;6.968;2022-07-01T01:56:30;101008.88;;;23.47;49.82
18784;BME280;9520;50.954;6.968;2022-07-01T01:56:52;101011.34;;;23.50;49.95
18784;BME280;9520;50.954;6.968;2022-07-01T01:57:14;101013.06;;;23.37;49.00
18784;BME280;9520;50.954;6.968;2022-07-01T01:57:35;101017.66;;;23.35;49.30
18784;BME280;9520;50.954;6.968;2022-07-01T01:57:57;101006.91;;;23.20;49.11
18784;BME280;9520;50.954;6.968;2022-07-01T01:58:20;101013.16;;;23.21;49.41
18784;BME280;9520;50.954;6.968;2022-07-01T01:58:41;101014.97;;;23.20;49.22
18784;BME280;9520;50.954;6.968;2022-07-01T01:59:05;101009.78;;;23.17;49.66
18784;BME280;9520;50.954;6.968;2022-07-01T01:59:28;101017.88;;;23.17;49.77
18784;BME280;9520;50.954;6.968;2022-07-01T01:59:50;101008.84;;;23.18;49.58
18784;BME280;9520;50.954;6.968;2022-07-01T02:00:13;101010.66;;;23.18;49.50
18784;BME280;9520;50.954;6.968;2022-07-01T02:00:34;101009.69;;;23.19;49.67
18784;BME280;9520;50.954;6.968;2022-07-01T02:00:56;101017.00;;;23.17;50.07